Time;durP1;ratioP1;P1;durP2;ratioP2;P2;SDS_P1;SDS_P2;PMS_P1;PMS_P2;Temp;Humidity;BMP_temperature;BMP_pressure;BME280_temperature;BME280_humidity;BME280_pressure;Samples;Min_cycle;Max_cycle;Signal;HPM_P1;HPM_P2
2022/09/12 00:02:04;;;;;;;5.68;3.33;;;;;;;11.08;100.00;96763.13;5069276;28;20045;-67
2022/09/12 00:04:29;;;;;;;4.63;3.15;;;;;;;11.11;100.00;96764.34;5024308;28;20034;-69
2022/09/12 00:06:55;;;;;;;4.65;2.80;;;;;;;11.10;100.00;96760.00;5045281;28;20041;-68
2022/09/12 00:09:20;;;;;;;5.07;3.30;;;;;;;11.14;100.00;96760.06;5043835;28;20037;-69
2022/09/12 00:11:46;;;;;;;4.25;3.20;;;;;;;11.15;100.00;96761.66;5034508;28;20037;-66
2022/09/12 00:14:17;;;;;;;4.95;2.67;;;;;;;11.04;100.00;96758.75;5033876;28;20025;-66
2022/09/12 00:16:43;;;;;;;4.22;2.65;;;;;;;10.89;100.00;96758.53;5015589;28;20033;-67
2022/09/12 00:19:08;;;;;;;6.60;2.75;;;;;;;10.93;100.00;96763.25;5027415;28;20040;-68
2022/09/12 00:21:36;;;;;;;5.97;2.78;;;;;;;10.79;100.00;96763.84;5013638;28;20034;-68
2022/09/12 00:24:02;;;;;;;4.85;2.95;;;;;;;10.78;100.00;96764.97;5033086;28;20029;-67
2022/09/12 00:26:28;;;;;;;6.45;2.90;;;;;;;10.91;100.00;96755.38;5033048;28;20499;-68
2022/09/12 00:28:53;;;;;;;7.93;2.83;;;;;;;10.88;100.00;96759.66;5015414;28;20105;-68
2022/09/12 00:31:22;;;;;;;5.70;2.67;;;;;;;10.88;100.00;96753.41;5033097;28;20530;-68
2022/09/12 00:33:48;;;;;;;3.92;2.50;;;;;;;10.83;100.00;96757.25;5031807;28;20490;-67
2022/09/12 00:36:17;;;;;;;4.70;2.20;;;;;;;11.00;100.00;96752.41;5040760;28;20056;-67
2022/09/12 00:38:44;;;;;;;5.75;3.05;;;;;;;11.00;100.00;96747.72;5032753;28;20083;-67
2022/09/12 00:41:18;;;;;;;3.88;2.65;;;;;;;11.07;100.00;96750.59;5032612;28;20036;-67
2022/09/12 00:43:46;;;;;;;9.80;3.08;;;;;;;11.14;100.00;96747.13;5032774;28;20029;-69
2022/09/12 00:46:26;;;;;;;4.22;2.75;;;;;;;11.01;100.00;96746.56;5033411;28;20045;-68
2022/09/12 00:48:58;;;;;;;4.07;3.00;;;;;;;10.98;100.00;96747.28;5018786;28;20040;-68
2022/09/12 00:51:25;;;;;;;4.70;2.60;;;;;;;10.90;100.00;96740.91;5044565;28;20037;-67
2022/09/12 00:53:52;;;;;;;4.60;2.60;;;;;;;10.82;100.00;96738.41;5035233;28;20110;-67
2022/09/12 00:56:20;;;;;;;6.30;2.83;;;;;;;10.77;100.00;96745.03;5053051;28;20573;-69
2022/09/12 00:59:00;;;;;;;6.60;2.90;;;;;;;10.78;100.00;96740.31;5035720;28;20121;-68
2022/09/12 01:01:25;;;;;;;;;;;;;;;10.72;100.00;96742.59;5015178;28;20498;-68
2022/09/12 01:03:51;;;;;;;7.95;2.67;;;;;;;10.61;100.00;96736.94;5031579;28;19959;-68
2022/09/12 01:06:38;;;;;;;4.97;2.58;;;;;;;10.57;100.00;96733.34;5030783;28;20037;-68
2022/09/12 01:09:04;;;;;;;4.97;2.72;;;;;;;10.58;100.00;96734.91;5031215;28;20029;-68
2022/09/12 01:11:37;;;;;;;4.78;2.85;;;;;;;10.61;100.00;96731.44;5032055;28;20040;-67
2022/09/12 01:14:04;;;;;;;5.00;2.90;;;;;;;10.50;100.00;96725.00;5038716;28;20095;-68
2022/09/12 01:16:29;;;;;;;3.53;2.60;;;;;;;10.52;100.00;96712.53;5032494;28;20433;-67
2022/09/12 01:19:11;;;;;;;5.35;3.00;;;;;;;10.59;100.00;96724.72;5032481;28;20033;-68
2022/09/12 01:21:59;;;;;;;5.43;2.63;;;;;;;10.49;100.00;96710.50;5040042;28;20378;-67
2022/09/12 01:24:50;;;;;;;7.68;2.70;;;;;;;10.49;100.00;96718.72;5031527;28;20045;-67
2022/09/12 01:27:21;;;;;;;8.15;2.92;;;;;;;10.60;100.00;96715.38;5037456;28;20033;-67
2022/09/12 01:30:18;;;;;;;13.23;3.10;;;;;;;10.54;100.00;96703.16;5033135;28;20141;-68
2022/09/12 01:33:01;;;;;;;5.40;2.70;;;;;;;10.52;100.00;96706.25;5015243;28;20029;-68
2022/09/12 01:35:29;;;;;;;4.13;2.65;;;;;;;10.40;100.00;96701.75;5032161;28;20025;-67
2022/09/12 01:38:15;;;;;;;4.90;2.70;;;;;;;10.39;100.00;96700.19;5032884;28;20047;-68
2022/09/12 01:41:05;;;;;;;4.90;2.78;;;;;;;10.29;100.00;96703.50;5033007;28;20029;-69
2022/09/12 01:43:44;;;;;;;4.28;2.80;;;;;;;10.26;100.00;96698.72;5012025;28;20049;-68
2022/09/12 01:46:18;;;;;;;5.20;3.00;;;;;;;10.18;100.00;96691.56;5036053;28;20041;-68
2022/09/12 01:48:54;;;;;;;6.07;2.88;;;;;;;10.02;100.00;96695.19;4998688;28;20120;-67
2022/09/12 01:51:30;;;;;;;3.58;2.60;;;;;;;9.84;100.00;96688.59;5014666;28;20033;-69
2022/09/12 01:54:13;;;;;;;3.88;2.50;;;;;;;9.75;100.00;96694.28;5033455;28;20056;-69
2022/09/12 01:56:41;;;;;;;7.43;3.33;;;;;;;9.75;100.00;96695.06;5034229;28;20034;-69
2022/09/12 01:59:23;;;;;;;7.03;3.30;;;;;;;9.81;100.00;96697.53;5032447;28;20052;-70
2022/09/12 02:02:07;;;;;;;7.63;3.00;;;;;;;9.79;100.00;96686.94;5004263;28;20029;-69
2022/09/12 02:04:50;;;;;;;6.65;3.03;;;;;;;9.86;100.00;96689.81;5051794;28;20502;-69
2022/09/12 02:07:30;;;;;;;4.47;3.13;;;;;;;9.84;100.00;96689.38;5040818;28;20103;-67
2022/09/12 02:10:08;;;;;;;6.88;3.35;;;;;;;9.88;100.00;96692.19;5031160;28;20108;-66
2022/09/12 02:12:43;;;;;;;4.07;3.35;;;;;;;9.94;100.00;96696.22;5039935;28;20076;-67
2022/09/12 02:15:11;;;;;;;5.80;3.00;;;;;;;9.95;100.00;96692.31;5016837;28;20025;-67
2022/09/12 02:17:41;;;;;;;4.82;2.53;;;;;;;9.94;100.00;96688.03;5018740;28;20033;-67
2022/09/12 02:20:15;;;;;;;10.45;3.35;;;;;;;10.01;100.00;96692.81;5037833;28;20048;-67
2022/09/12 02:22:43;;;;;;;6.55;3.13;;;;;;;10.02;100.00;96681.50;5039722;28;20033;-67
2022/09/12 02:25:10;;;;;;;4.13;2.78;;;;;;;9.98;100.00;96677.94;5031525;28;20029;-66
2022/09/12 02:27:50;;;;;;;3.25;2.47;;;;;;;9.52;100.00;96675.88;5029306;28;20030;-67
2022/09/12 02:30:18;;;;;;;5.25;2.90;;;;;;;9.53;100.00;96672.00;5029940;28;20056;-67
2022/09/12 02:33:16;;;;;;;6.10;3.35;;;;;;;9.34;100.00;96666.53;5031672;28;20018;-67
2022/09/12 02:35:54;;;;;;;5.40;3.55;;;;;;;9.14;100.00;96669.22;5030163;28;20694;-67
2022/09/12 02:38:31;;;;;;;4.18;3.28;;;;;;;8.93;100.00;96660.56;5031038;28;20113;-67
2022/09/12 02:40:57;;;;;;;5.47;3.95;;;;;;;8.68;100.00;96657.28;5030952;28;20025;-66
2022/09/12 02:43:22;;;;;;;8.55;4.30;;;;;;;8.55;100.00;96662.06;5021897;28;20490;-67
2022/09/12 02:45:48;;;;;;;8.48;4.47;;;;;;;8.53;100.00;96656.16;5037743;28;20033;-67
2022/09/12 02:48:41;;;;;;;8.27;4.68;;;;;;;8.58;100.00;96656.69;5031459;28;20041;-67
2022/09/12 02:51:07;;;;;;;6.75;3.95;;;;;;;8.69;100.00;96651.47;5037311;28;20405;-66
2022/09/12 02:53:33;;;;;;;6.30;4.00;;;;;;;8.80;100.00;96651.72;5042593;28;20060;-66
2022/09/12 02:55:58;;;;;;;9.65;3.70;;;;;;;8.95;100.00;96650.09;5033081;28;20037;-69
2022/09/12 02:58:27;;;;;;;4.93;3.90;;;;;;;9.02;100.00;96652.19;5047712;28;20060;-68
2022/09/12 03:01:24;;;;;;;6.50;3.75;;;;;;;9.07;100.00;96652.69;5045610;28;20036;-67
2022/09/12 03:04:17;;;;;;;7.13;4.03;;;;;;;9.17;100.00;96657.59;4998022;28;20041;-67
2022/09/12 03:07:12;;;;;;;8.32;3.42;;;;;;;9.14;100.00;96650.09;5054599;28;20028;-67
2022/09/12 03:10:04;;;;;;;6.20;3.15;;;;;;;9.07;100.00;96654.63;4982793;28;20038;-67
2022/09/12 03:13:08;;;;;;;6.35;3.20;;;;;;;9.09;100.00;96657.78;5036486;28;20049;-68
2022/09/12 03:15:51;;;;;;;4.85;3.47;;;;;;;9.03;100.00;96654.56;5032324;28;20155;-67
2022/09/12 03:18:42;;;;;;;5.88;3.25;;;;;;;9.09;100.00;96660.53;5038573;28;20522;-68
2022/09/12 03:21:22;;;;;;;3.58;2.60;;;;;;;9.06;100.00;96661.25;5035117;28;20037;-68
2022/09/12 03:24:03;;;;;;;;;;;;;;;9.12;100.00;96654.34;5037301;28;20060;-66
2022/09/12 03:26:36;;;;;;;9.20;3.35;;;;;;;9.27;100.00;96666.38;5039149;28;19909;-67
2022/09/12 03:29:05;;;;;;;8.63;3.40;;;;;;;9.17;100.00;96665.00;5048844;28;20036;-66
2022/09/12 03:31:30;;;;;;;3.95;2.70;;;;;;;9.28;100.00;96666.03;5048516;28;20025;-67
2022/09/12 03:33:57;;;;;;;4.18;2.80;;;;;;;9.14;100.00;96668.44;5054071;28;20047;-67
2022/09/12 03:36:26;;;;;;;5.25;2.40;;;;;;;8.99;100.00;96672.81;5053780;28;20032;-67
2022/09/12 03:38:52;;;;;;;9.67;2.67;;;;;;;8.88;100.00;96671.81;5047061;28;20124;-67
2022/09/12 03:41:18;;;;;;;5.00;2.78;;;;;;;8.99;100.00;96670.88;5016227;28;20037;-67
2022/09/12 03:43:44;;;;;;;7.30;3.10;;;;;;;9.04;100.00;96658.88;5033998;28;20038;-67
2022/09/12 03:46:09;;;;;;;5.47;3.00;;;;;;;9.15;100.00;96659.13;5033645;28;20029;-67
2022/09/12 03:48:35;;;;;;;6.13;3.10;;;;;;;9.23;100.00;96663.56;5033984;28;20030;-68
2022/09/12 03:51:06;;;;;;;4.57;3.40;;;;;;;9.25;100.00;96661.25;5033836;28;20025;-67
2022/09/12 03:53:32;;;;;;;9.45;3.38;;;;;;;9.21;100.00;96652.22;5033377;28;20562;-66
2022/09/12 03:55:57;;;;;;;3.85;3.00;;;;;;;9.25;100.00;96655.78;5044207;28;20085;-67
2022/09/12 03:58:23;;;;;;;6.45;3.20;;;;;;;9.25;100.00;96660.47;5035174;28;20049;-66
2022/09/12 04:00:49;;;;;;;6.03;3.05;;;;;;;9.23;100.00;96654.59;5043602;28;20030;-67
2022/09/12 04:03:15;;;;;;;6.53;3.20;;;;;;;9.11;100.00;96661.78;5033613;28;20037;-67
2022/09/12 04:05:41;;;;;;;4.40;3.00;;;;;;;9.07;100.00;96657.38;5032511;28;20045;-67
2022/09/12 04:08:06;;;;;;;6.80;3.00;;;;;;;9.09;100.00;96652.34;5041144;28;20155;-67
2022/09/12 04:10:32;;;;;;;5.07;3.10;;;;;;;9.11;100.00;96652.75;5039885;28;20044;-68
2022/09/12 04:12:57;;;;;;;4.10;2.72;;;;;;;9.08;100.00;96648.03;5032741;28;20049;-67
2022/09/12 04:15:23;;;;;;;9.05;4.10;;;;;;;9.16;100.00;96647.03;5031734;28;20061;-68
2022/09/12 04:17:48;;;;;;;5.22;3.40;;;;;;;8.94;100.00;96652.03;5033387;28;20068;-67
2022/09/12 04:20:14;;;;;;;5.82;3.22;;;;;;;8.77;100.00;96655.16;5032687;28;20116;-68
2022/09/12 04:22:39;;;;;;;8.55;3.17;;;;;;;8.60;100.00;96659.84;5040994;28;20036;-66
2022/09/12 04:25:06;;;;;;;6.45;3.25;;;;;;;8.57;100.00;96659.75;5037811;28;20033;-68
2022/09/12 04:27:32;;;;;;;6.13;3.47;;;;;;;8.69;100.00;96658.88;5035186;28;20086;-68
2022/09/12 04:29:59;;;;;;;5.47;3.30;;;;;;;8.89;100.00;96663.22;5022919;28;20052;-68
2022/09/12 04:32:24;;;;;;;4.45;3.70;;;;;;;8.91;100.00;96665.59;5002585;28;20633;-67
2022/09/12 04:34:51;;;;;;;4.88;3.88;;;;;;;8.93;100.00;96666.03;5027757;28;20118;-67
2022/09/12 04:37:16;;;;;;;4.78;3.20;;;;;;;8.93;100.00;96666.84;5036479;28;20108;-66
2022/09/12 04:39:42;;;;;;;6.60;3.33;;;;;;;8.96;100.00;96666.13;5040537;28;21068;-67
2022/09/12 04:42:07;;;;;;;5.82;3.25;;;;;;;8.94;100.00;96665.69;5014798;28;20032;-67
2022/09/12 04:44:33;;;;;;;4.82;3.15;;;;;;;8.90;100.00;96669.50;5032511;28;20030;-67
2022/09/12 04:46:58;;;;;;;4.78;3.33;;;;;;;8.87;100.00;96662.78;5029600;28;20498;-68
2022/09/12 04:49:24;;;;;;;9.07;3.85;;;;;;;8.85;100.00;96664.31;5039841;28;20108;-67
2022/09/12 04:51:53;;;;;;;5.53;3.72;;;;;;;8.81;100.00;96666.97;5051152;28;20060;-67
2022/09/12 04:54:19;;;;;;;8.30;2.92;;;;;;;8.82;100.00;96667.75;5038499;28;20056;-66
2022/09/12 04:56:47;;;;;;;5.55;3.47;;;;;;;8.94;100.00;96675.81;5033432;28;20069;-67
2022/09/12 04:59:15;;;;;;;6.10;3.60;;;;;;;9.10;100.00;96671.09;5032185;28;20029;-67
2022/09/12 05:01:41;;;;;;;9.90;3.47;;;;;;;9.01;100.00;96677.94;4994028;28;20057;-68
2022/09/12 05:04:08;;;;;;;10.80;3.83;;;;;;;9.12;100.00;96677.00;5040679;28;20063;-67
2022/09/12 05:06:35;;;;;;;7.75;3.67;;;;;;;9.12;100.00;96678.94;5051807;28;20453;-67
2022/09/12 05:09:04;;;;;;;5.55;3.97;;;;;;;9.13;100.00;96678.59;5017735;28;20067;-68
2022/09/12 05:11:32;;;;;;;6.47;3.80;;;;;;;9.26;100.00;96679.25;5052209;28;20109;-67
2022/09/12 05:13:58;;;;;;;5.72;4.60;;;;;;;9.28;100.00;96684.38;5022401;28;20037;-67
2022/09/12 05:16:25;;;;;;;7.05;4.40;;;;;;;9.30;100.00;96685.56;5036576;28;20029;-67
2022/09/12 05:18:51;;;;;;;5.95;4.22;;;;;;;9.87;100.00;96674.22;5035107;28;20039;-68
2022/09/12 05:21:20;;;;;;;6.13;4.30;;;;;;;10.81;100.00;96680.09;5036900;28;20124;-68
2022/09/12 05:23:48;;;;;;;6.45;3.50;;;;;;;11.94;100.00;96674.88;5034997;28;20036;-68
2022/09/12 05:26:15;;;;;;;6.38;3.55;;;;;;;13.04;100.00;96678.97;5051634;28;20489;-68
2022/09/12 05:28:42;;;;;;;6.30;2.72;;;;;;;14.11;100.00;96679.44;5035954;28;20037;-69
2022/09/12 05:31:14;;;;;;;8.82;2.67;;;;;;;15.22;100.00;96683.41;5037269;28;20033;-69
2022/09/12 05:33:41;;;;;;;3.72;2.50;;;;;;;16.15;100.00;96688.59;5031913;28;20083;-69
2022/09/12 05:36:10;;;;;;;5.15;3.05;;;;;;;17.02;100.00;96691.53;5037168;28;20048;-68
2022/09/12 05:38:36;;;;;;;4.18;2.50;;;;;;;17.34;100.00;96693.97;5015841;28;20033;-69
2022/09/12 05:41:23;;;;;;;3.60;1.90;;;;;;;18.22;88.63;96691.75;5031225;28;20168;-67
2022/09/12 05:44:00;;;;;;;3.90;2.25;;;;;;;18.77;82.53;96698.09;5043400;28;20456;-68
2022/09/12 05:46:27;;;;;;;3.35;1.90;;;;;;;19.33;79.23;96698.34;5034025;28;20025;-68
2022/09/12 05:48:54;;;;;;;3.28;1.60;;;;;;;19.42;79.82;96689.44;5033959;28;20120;-68
2022/09/12 05:51:22;;;;;;;3.50;2.20;;;;;;;18.98;78.95;96694.19;5051685;28;20104;-68
2022/09/12 05:53:51;;;;;;;4.28;2.40;;;;;;;19.00;77.40;96691.78;5050460;28;20086;-69
2022/09/12 05:56:19;;;;;;;6.85;2.60;;;;;;;18.52;86.16;96696.47;5036546;28;20037;-69
2022/09/12 05:58:47;;;;;;;4.40;1.90;;;;;;;19.18;78.85;96697.03;5032010;28;20429;-67
2022/09/12 06:01:15;;;;;;;2.88;1.73;;;;;;;18.48;80.79;96699.31;5031810;28;20033;-68
2022/09/12 06:03:47;;;;;;;2.88;1.90;;;;;;;17.34;89.28;96701.47;5032011;28;20537;-68
2022/09/12 06:06:14;;;;;;;4.35;1.80;;;;;;;16.64;91.42;96702.50;5031864;28;20037;-68
2022/09/12 06:08:44;;;;;;;3.78;1.98;;;;;;;15.38;100.00;96697.56;5033716;28;20036;-67
2022/09/12 06:11:13;;;;;;;6.88;2.00;;;;;;;14.44;100.00;96707.84;5037192;28;20545;-67
2022/09/12 06:13:41;;;;;;;4.30;2.40;;;;;;;14.31;100.00;96712.13;5033051;28;20059;-68
2022/09/12 06:16:11;;;;;;;9.77;1.98;;;;;;;14.22;100.00;96709.75;5051016;28;20409;-67
2022/09/12 06:18:38;;;;;;;4.38;2.30;;;;;;;14.48;100.00;96705.88;5051038;28;20029;-67
2022/09/12 06:21:09;;;;;;;3.78;1.75;;;;;;;13.38;100.00;96707.88;5048536;28;20025;-66
2022/09/12 06:23:35;;;;;;;4.05;2.00;;;;;;;12.30;100.00;96705.44;5038481;28;20442;-69
2022/09/12 06:26:03;;;;;;;3.40;2.10;;;;;;;11.80;100.00;96702.97;5031262;28;20087;-67
2022/09/12 06:28:29;;;;;;;3.78;2.60;;;;;;;11.65;100.00;96711.00;5031948;28;20038;-67
2022/09/12 06:31:00;;;;;;;4.70;2.72;;;;;;;11.63;100.00;96705.13;5031432;28;20025;-69
2022/09/12 06:33:26;;;;;;;6.28;2.70;;;;;;;11.74;100.00;96708.00;5029966;28;20389;-69
2022/09/12 06:35:51;;;;;;;4.10;2.83;;;;;;;11.66;100.00;96709.84;5014261;28;20033;-68
2022/09/12 06:38:17;;;;;;;2.97;2.33;;;;;;;11.66;100.00;96709.06;5044605;28;20490;-68
2022/09/12 06:40:46;;;;;;;10.45;3.08;;;;;;;11.67;100.00;96699.69;5039017;28;20040;-68
2022/09/12 06:43:12;;;;;;;3.88;2.80;;;;;;;11.78;100.00;96700.59;5048176;28;20029;-68
2022/09/12 06:45:39;;;;;;;4.35;2.88;;;;;;;11.78;100.00;96703.31;5033101;28;20026;-68
2022/09/12 06:48:04;;;;;;;10.80;3.05;;;;;;;11.83;100.00;96699.47;5043308;28;20530;-68
2022/09/12 06:50:30;;;;;;;3.78;2.67;;;;;;;12.00;100.00;96696.16;5017375;28;20061;-68
2022/09/12 06:52:55;;;;;;;4.53;2.80;;;;;;;12.17;100.00;96699.44;5034180;28;20474;-68
2022/09/12 06:55:22;;;;;;;7.28;2.55;;;;;;;12.21;100.00;96705.78;5021234;28;20636;-69
2022/09/12 06:57:48;;;;;;;3.97;2.60;;;;;;;12.30;100.00;96703.50;4999527;28;20490;-69
2022/09/12 07:00:14;;;;;;;5.85;2.50;;;;;;;12.38;100.00;96707.09;5020566;28;20083;-69
2022/09/12 07:02:39;;;;;;;7.13;2.80;;;;;;;12.62;100.00;96703.81;5035750;28;20052;-68
2022/09/12 07:05:05;;;;;;;4.25;2.42;;;;;;;12.66;100.00;96706.59;5041375;28;20044;-70
2022/09/12 07:07:33;;;;;;;4.72;2.40;;;;;;;12.76;100.00;96711.34;5029979;28;20141;-68
2022/09/12 07:09:59;;;;;;;5.63;2.78;;;;;;;13.13;100.00;96704.94;5046930;28;20079;-66
2022/09/12 07:12:24;;;;;;;6.70;3.70;;;;;;;13.27;100.00;96707.00;5042781;28;20608;-67
2022/09/12 07:14:49;;;;;;;6.13;3.38;;;;;;;13.48;100.00;96700.84;5030792;28;20103;-66
2022/09/12 07:17:16;;;;;;;6.25;2.97;;;;;;;13.21;100.00;96700.28;5024898;28;20077;-67
2022/09/12 07:19:41;;;;;;;4.65;3.33;;;;;;;13.45;100.00;96700.81;5022835;28;20065;-66
2022/09/12 07:22:07;;;;;;;5.35;3.33;;;;;;;13.82;100.00;96702.56;5020100;28;20045;-68
2022/09/12 07:24:32;;;;;;;7.03;3.03;;;;;;;13.96;100.00;96706.16;5038126;28;20049;-67
2022/09/12 07:26:58;;;;;;;4.25;2.80;;;;;;;13.83;100.00;96707.69;5039734;28;20041;-69
2022/09/12 07:29:23;;;;;;;6.38;2.30;;;;;;;14.28;100.00;96705.47;5036238;28;20041;-70
2022/09/12 07:31:48;;;;;;;3.72;2.63;;;;;;;14.60;100.00;96706.69;5032334;28;20042;-70
2022/09/12 07:34:14;;;;;;;4.65;2.10;;;;;;;14.85;100.00;96707.47;5018240;28;20049;-69
2022/09/12 07:36:39;;;;;;;3.63;2.53;;;;;;;15.11;100.00;96711.03;5006031;28;20041;-69
2022/09/12 07:39:05;;;;;;;6.45;3.38;;;;;;;14.70;100.00;96706.69;5027275;28;20044;-69
2022/09/12 07:41:34;;;;;;;3.95;2.85;;;;;;;15.02;100.00;96710.66;5023697;28;20109;-67
2022/09/12 07:44:02;;;;;;;4.72;2.72;;;;;;;15.59;100.00;96705.00;5010218;28;20049;-69
2022/09/12 07:46:28;;;;;;;9.15;2.72;;;;;;;16.61;100.00;96717.91;5001059;28;20048;-66
2022/09/12 07:48:56;;;;;;;5.35;2.38;;;;;;;17.30;100.00;96715.38;5023778;28;20049;-68
2022/09/12 07:51:23;;;;;;;5.18;2.17;;;;;;;18.53;100.00;96717.47;5018267;28;20407;-67
2022/09/12 07:53:48;;;;;;;6.22;2.60;;;;;;;17.77;100.00;96707.34;5031406;28;20049;-68
2022/09/12 07:56:15;;;;;;;3.60;1.80;;;;;;;19.82;100.00;96706.16;5042736;28;20038;-66
2022/09/12 07:58:41;;;;;;;2.63;1.67;;;;;;;20.78;95.40;96711.63;5040338;28;20038;-69
2022/09/12 08:01:12;;;;;;;3.70;1.65;;;;;;;22.67;81.82;96706.88;5026995;28;20406;-69
2022/09/12 08:03:38;;;;;;;7.13;1.40;;;;;;;24.11;73.36;96712.41;5030926;28;20041;-68
2022/09/12 08:06:09;;;;;;;3.42;1.48;;;;;;;24.09;69.80;96715.66;5001456;28;20045;-66
2022/09/12 08:08:35;;;;;;;2.38;1.40;;;;;;;24.59;70.27;96713.78;5029094;28;20033;-70
2022/09/12 08:11:04;;;;;;;3.60;1.30;;;;;;;25.24;61.60;96716.00;5019593;28;20102;-69
2022/09/12 08:13:31;;;;;;;3.08;1.50;;;;;;;22.98;65.14;96711.09;5033948;28;20061;-68
2022/09/12 08:16:01;;;;;;;2.90;1.50;;;;;;;22.20;68.63;96706.69;5034891;28;20033;-68
2022/09/12 08:18:29;;;;;;;2.47;1.50;;;;;;;20.71;77.76;96711.03;5031533;28;20075;-68
2022/09/12 08:21:03;;;;;;;2.80;1.55;;;;;;;20.54;77.39;96708.19;5026077;28;20290;-67
2022/09/12 08:23:29;;;;;;;3.97;1.70;;;;;;;22.80;65.69;96706.09;5031343;28;20049;-68
2022/09/12 08:26:05;;;;;;;2.95;1.10;;;;;;;22.93;63.26;96708.88;5036695;28;20072;-67
2022/09/12 08:28:33;;;;;;;3.17;1.38;;;;;;;24.28;59.49;96702.56;5034927;28;20033;-68
2022/09/12 08:31:03;;;;;;;3.17;1.30;;;;;;;21.92;64.38;96704.31;5033534;28;20095;-68
2022/09/12 08:33:32;;;;;;;8.48;1.50;;;;;;;19.97;77.79;96698.31;5027236;28;20045;-68
2022/09/12 08:36:06;;;;;;;3.92;1.15;;;;;;;21.94;69.39;96701.84;5028475;28;20071;-68
2022/09/12 08:38:35;;;;;;;2.75;1.33;;;;;;;23.32;60.87;96710.38;5031746;28;20375;-66
2022/09/12 08:41:16;;;;;;;5.55;1.33;;;;;;;24.88;55.07;96701.44;5030376;28;20049;-66
2022/09/12 08:43:42;;;;;;;3.55;0.93;;;;;;;19.81;73.53;96716.50;5029295;28;20411;-66
2022/09/12 08:46:21;;;;;;;1.52;0.98;;;;;;;21.22;73.01;96703.00;5018368;28;20045;-67
2022/09/12 08:48:47;;;;;;;3.28;1.38;;;;;;;21.38;66.53;96707.75;5029826;28;20045;-67
2022/09/12 08:51:15;;;;;;;6.20;1.23;;;;;;;21.31;73.06;96699.59;5036026;28;20040;-67
2022/09/12 08:53:44;;;;;;;3.95;1.30;;;;;;;22.56;64.77;96700.84;5033462;28;20106;-65
2022/09/12 08:56:11;;;;;;;4.32;1.13;;;;;;;20.93;72.64;96702.94;5028650;28;20102;-67
2022/09/12 08:58:40;;;;;;;3.60;1.00;;;;;;;20.40;74.00;96697.38;5018880;28;20045;-67
2022/09/12 09:01:14;;;;;;;2.67;0.98;;;;;;;21.09;73.55;96704.94;5029511;28;20041;-69
2022/09/12 09:03:49;;;;;;;2.30;1.00;;;;;;;20.26;75.17;96701.28;5035480;28;20047;-67
2022/09/12 09:06:34;;;;;;;2.05;1.23;;;;;;;20.23;76.02;96702.13;5010423;28;20041;-66
2022/09/12 09:09:12;;;;;;;3.35;1.55;;;;;;;21.93;66.52;96699.50;5029119;28;20041;-67
2022/09/12 09:11:50;;;;;;;2.70;1.30;;;;;;;24.47;57.46;96699.84;5032123;28;20049;-68
2022/09/12 09:14:50;;;;;;;4.57;0.90;;;;;;;23.23;58.53;96707.50;5025849;28;20702;-68
2022/09/12 09:17:41;;;;;;;2.50;0.88;;;;;;;24.01;56.68;96705.97;5024538;28;20045;-68
2022/09/12 09:20:29;;;;;;;4.78;0.80;;;;;;;23.98;57.94;96713.25;5022593;28;20069;-67
2022/09/12 09:23:09;;;;;;;3.92;0.90;;;;;;;22.85;60.72;96711.09;5032743;28;20103;-67
2022/09/12 09:25:53;;;;;;;3.03;1.10;;;;;;;19.49;77.49;96697.66;5029493;28;20076;-67
2022/09/12 09:28:41;;;;;;;2.75;0.90;;;;;;;21.05;72.88;96693.09;5024544;28;20393;-67
2022/09/12 09:31:18;;;;;;;3.80;0.98;;;;;;;23.04;65.15;96698.94;5028640;28;20030;-67
2022/09/12 09:33:46;;;;;;;3.80;0.82;;;;;;;23.75;59.72;96696.91;5027927;28;20044;-67
2022/09/12 09:36:24;;;;;;;2.33;1.05;;;;;;;22.97;60.20;96692.78;5027827;28;20100;-67
2022/09/12 09:38:58;;;;;;;3.75;0.88;;;;;;;21.69;67.82;96687.84;5030411;28;20080;-66
2022/09/12 09:41:58;;;;;;;4.93;2.58;;;;;;;24.10;58.34;96694.06;5028138;28;20040;-67
2022/09/12 09:44:23;;;;;;;;;;;;;;;24.82;58.25;96699.72;5033538;28;20497;-66
2022/09/12 09:46:54;;;;;;;2.15;1.02;;;;;;;25.17;56.73;96698.25;5032452;28;20541;-68
2022/09/12 09:49:20;;;;;;;4.32;1.65;;;;;;;25.86;54.43;96693.31;5021530;28;20083;-67
2022/09/12 09:51:47;;;;;;;4.28;1.25;;;;;;;24.92;57.09;96696.47;5034099;28;20053;-67
2022/09/12 09:54:35;;;;;;;2.13;1.30;;;;;;;24.22;57.61;96691.19;5029827;28;20040;-67
2022/09/12 09:57:02;;;;;;;5.55;1.27;;;;;;;25.18;55.29;96690.63;4996550;28;20545;-67
2022/09/12 09:59:32;;;;;;;4.22;1.20;;;;;;;24.75;55.79;96689.56;5028165;28;20049;-68
2022/09/12 10:02:13;;;;;;;6.20;1.00;;;;;;;25.98;52.52;96685.97;5028664;28;20045;-68
2022/09/12 10:04:40;;;;;;;4.43;1.10;;;;;;;25.71;51.82;96686.78;5030947;28;20030;-68
2022/09/12 10:07:17;;;;;;;2.15;1.10;;;;;;;25.88;51.94;96687.25;5026548;28;20758;-68
2022/09/12 10:10:05;;;;;;;3.90;1.00;;;;;;;26.77;50.83;96687.16;5030709;28;20088;-66
2022/09/12 10:12:30;;;;;;;2.58;1.50;;;;;;;26.41;51.83;96688.84;5029942;28;20040;-66
2022/09/12 10:14:59;;;;;;;3.38;1.20;;;;;;;26.06;53.59;96687.22;5035815;28;20535;-67
2022/09/12 10:17:40;;;;;;;2.20;1.40;;;;;;;25.10;57.62;96689.34;5010981;28;20387;-66
2022/09/12 10:20:37;;;;;;;3.92;1.17;;;;;;;25.18;56.98;96685.78;5026822;28;20049;-67
2022/09/12 10:23:24;;;;;;;3.80;1.02;;;;;;;25.44;57.19;96684.75;5003503;28;20124;-66
2022/09/12 10:25:56;;;;;;;3.85;1.10;;;;;;;26.26;53.14;96680.31;5031876;28;20076;-67
2022/09/12 10:28:29;;;;;;;4.50;1.20;;;;;;;24.87;57.17;96688.69;5026920;28;20583;-67
2022/09/12 10:30:55;;;;;;;2.30;1.20;;;;;;;25.34;54.42;96679.13;5027960;28;20042;-67
2022/09/12 10:33:23;;;;;;;5.03;1.30;;;;;;;21.72;69.79;96673.81;5026242;28;20544;-68
2022/09/12 10:35:51;;;;;;;3.50;1.00;;;;;;;22.15;71.81;96671.78;5033147;28;20072;-67
2022/09/12 10:38:23;;;;;;;2.75;1.27;;;;;;;23.36;64.42;96676.72;4988161;28;20038;-68
2022/09/12 10:40:58;;;;;;;4.75;2.00;;;;;;;24.15;63.49;96671.88;5033689;28;20045;-68
2022/09/12 10:43:26;;;;;;;5.25;1.75;;;;;;;24.91;59.22;96678.09;5024825;28;20046;-66
2022/09/12 10:45:57;;;;;;;9.60;2.08;;;;;;;24.27;61.54;96675.03;5032135;28;20045;-68
2022/09/12 10:48:32;;;;;;;2.25;1.40;;;;;;;24.39;61.09;96672.13;5028164;28;20064;-67
2022/09/12 10:50:58;;;;;;;5.25;1.45;;;;;;;25.18;58.69;96668.19;5027371;28;20044;-67
2022/09/12 10:53:30;;;;;;;4.40;1.35;;;;;;;25.13;58.41;96663.19;5009074;28;20232;-65
2022/09/12 10:55:56;;;;;;;4.15;1.35;;;;;;;25.18;58.31;96657.00;5028628;28;20106;-67
2022/09/12 10:58:48;;;;;;;7.13;3.37;;;;;;;25.34;57.07;96655.94;5029345;28;20650;-67
2022/09/12 11:01:35;;;;;;;2.95;1.25;;;;;;;25.50;54.76;96655.63;5028204;28;20648;-66
2022/09/12 11:04:22;;;;;;;4.38;1.13;;;;;;;24.88;58.84;96644.63;5017635;28;20086;-66
2022/09/12 11:07:30;;;;;;;4.32;0.80;;;;;;;25.48;57.30;96641.31;5031014;28;20052;-69
2022/09/12 11:10:29;;;;;;;4.05;1.20;;;;;;;25.74;56.96;96646.56;5030246;28;20111;-66
2022/09/12 11:13:16;;;;;;;2.72;1.10;;;;;;;24.81;59.58;96648.50;5045390;28;20045;-67
2022/09/12 11:16:20;;;;;;;2.35;1.23;;;;;;;24.36;62.06;96652.69;5020602;28;20044;-68
2022/09/12 11:18:54;;;;;;;3.97;1.63;;;;;;;24.19;63.24;96652.91;5027628;28;20093;-68
2022/09/12 11:21:47;;;;;;;3.60;1.42;;;;;;;24.00;62.76;96645.66;5011864;28;20398;-66
2022/09/12 11:24:12;;;;;;;2.50;1.35;;;;;;;23.25;66.10;96651.97;5029316;28;20041;-68
2022/09/12 11:27:06;;;;;;;3.35;1.30;;;;;;;23.95;65.80;96646.25;5028300;28;20037;-68
2022/09/12 11:29:53;;;;;;;3.53;1.27;;;;;;;24.51;63.31;96647.31;5031652;28;20034;-68
2022/09/12 11:32:37;;;;;;;4.28;1.50;;;;;;;24.12;61.61;96646.84;5011310;28;20034;-69
2022/09/12 11:35:12;;;;;;;4.70;1.58;;;;;;;25.07;58.71;96643.44;5015070;28;20544;-66
2022/09/12 11:38:19;;;;;;;3.05;1.45;;;;;;;25.32;58.69;96644.44;5044807;28;20046;-68
2022/09/12 11:40:54;;;;;;;1.95;1.20;;;;;;;25.79;57.93;96642.38;5027432;28;20092;-67
2022/09/12 11:43:50;;;;;;;2.63;1.05;;;;;;;25.48;58.25;96637.69;5029010;28;20088;-67
2022/09/12 11:46:37;;;;;;;3.08;1.13;;;;;;;25.41;57.33;96647.22;4991986;28;20049;-70
2022/09/12 11:49:12;;;;;;;2.50;1.30;;;;;;;25.24;59.06;96640.31;5025769;28;20037;-73
2022/09/12 11:51:54;;;;;;;1.80;0.90;;;;;;;25.30;59.36;96630.06;5031155;28;20047;-67
2022/09/12 11:54:35;;;;;;;2.58;1.27;;;;;;;24.47;61.83;96632.66;5027340;28;20040;-67
2022/09/12 11:57:32;;;;;;;2.83;1.50;;;;;;;24.53;62.66;96628.84;5031042;28;20065;-68